Latest Coastal Weather Observations for Maningrida Airport

IDD60701

Issued at 8:21 pm CST Saturday 22 February 2020 (issued every 10 minutes, with the page automatically refreshed every 10 minutes)

About coastal observations | Map of coastal stations | Coastal observations for NT | Marine services | Other Formats
Station Details ID: 014405 Name: MANINGRIDA AIRPORT Lat: -12.06 Lon: 134.23 Height: 28.1 m
Data from the previous 72 hours. | See also: Recent months at Maningrida Airport
Date/Time
CST
Wind Sea
Height
m
Swell Vis
km
Cloud Weather Temp
°C
Press
hPa
Rain since
9am
mm
Dir  Spd
kts
Gust
kts
Height
m
Period
s
Dir
22/08:00pm NE 4 6 - - - - 10 - - 25.6 1004.9 16.0
22/07:30pm SSE 1 3 - - - - 10 Partly cloudy - 25.6 1005.0 16.0
22/07:00pm N 5 8 - - - - 10 Partly cloudy - 25.6 1004.9 16.0
22/06:30pm SSE 7 11 - - - - - Partly cloudy - 24.5 1003.9 15.8
22/06:00pm NW 3 5 - - - - - Cloudy Recent precip. 24.7 1003.6 11.8
22/05:30pm ENE 3 7 - - - - - - - 24.1 1004.1 11.6
22/05:11pm ESE 17 32 - - - - 1 Partly cloudy - 23.6 1004.2 10.6
22/05:05pm SE 21 32 - - - - 2 Partly cloudy - 23.8 1004.3 4.6
22/05:03pm SE 20 32 - - - - 4 Partly cloudy - 24.1 1004.6 2.2
22/05:00pm S 14 32 - - - - 10 Partly cloudy - 25.5 1004.5 0.2
22/04:57pm SW 9 27 - - - - 10 Partly cloudy - 28.3 1004.2 0.2
22/04:30pm W 9 15 - - - - 10 Partly cloudy - 32.6 1002.5 0.2
22/04:00pm W 9 16 - - - - 10 Partly cloudy - 32.8 1002.8 0.2
22/03:30pm WNW 9 15 - - - - 10 Partly cloudy - 33.0 1003.1 0.2
22/03:00pm WNW 7 13 - - - - 10 Mostly clear - 32.8 1003.7 0.2
22/02:30pm W 8 13 - - - - 10 Partly cloudy - 33.3 1004.2 0.2
22/02:00pm WSW 7 13 - - - - 10 - - 33.1 1004.7 0.2
22/01:30pm WSW 7 11 - - - - 10 - - 33.5 1005.3 0.2
22/01:00pm WSW 7 13 - - - - 10 - - 32.9 1005.8 0.2
22/12:30pm SW 8 13 - - - - 10 - - 32.5 1006.2 0.2
22/12:00pm WSW 6 9 - - - - 10 - - 31.7 1006.5 0.2
22/11:30am SW 6 11 - - - - 10 - - 31.1 1006.6 0.2
22/11:00am SW 7 12 - - - - 10 - - 29.9 1006.9 0.2
22/10:30am SW 9 13 - - - - 10 - - 29.3 1007.1 0.2
22/10:00am SW 10 15 - - - - 10 - - 28.6 1007.2 0.2
22/09:30am SW 9 16 - - - - 10 - - 28.4 1007.5 0.2
22/09:00am SW 8 14 - - - - 10 Partly cloudy - 28.2 1007.6 1.4
22/08:30am SW 8 13 - - - - 10 - - 27.1 1007.4 1.4
22/08:00am WSW 8 14 - - - - 10 - - 26.1 1007.1 1.4
22/07:30am SW 7 10 - - - - 10 - - 25.6 1006.8 1.4
22/07:00am WSW 7 11 - - - - 10 - - 25.0 1006.3 1.4
22/06:30am SW 6 10 - - - - 10 Partly cloudy - 24.8 1006.3 1.4
22/06:00am WSW 6 9 - - - - 10 Partly cloudy - 24.5 1006.0 1.4
22/05:30am WSW 5 7 - - - - 10 Partly cloudy - 24.6 1005.8 1.4
22/05:00am SW 4 6 - - - - 10 Partly cloudy - 24.8 1006.0 1.4
22/04:30am SW 5 7 - - - - 10 Partly cloudy - 24.8 1005.6 1.4
22/04:00am SW 4 6 - - - - 10 Partly cloudy - 24.8 1005.6 1.4
22/03:30am SW 4 6 - - - - 10 Partly cloudy - 24.7 1005.7 1.4
22/03:00am SW 4 6 - - - - 10 Mostly cloudy - 24.7 1006.0 1.4
22/02:30am SW 4 6 - - - - 10 Partly cloudy - 24.5 1006.4 1.4
22/02:00am SW 2 4 - - - - 10 - - 24.4 1006.6 1.4
22/01:30am WSW 3 5 - - - - 10 Partly cloudy - 24.5 1006.8 1.4
22/01:00am WSW 3 5 - - - - 10 Partly cloudy - 24.5 1006.9 1.4
22/12:30am CALM 0 3 - - - - 10 Partly cloudy - 24.6 1007.2 1.4
22/12:00am SW 3 5 - - - - 10 Cloudy - 24.6 1007.5 1.4
 
Date/Time
CST
Wind Sea
Height
m
Swell Vis
km
Cloud Weather Temp
°C
Press
hPa
Rain since
9am
mm
Dir  Spd
kts
Gust
kts
Height
m
Period
s
Dir
21/11:30pm SW 3 5 - - - - 10 - - 24.7 1007.8 1.4
21/11:00pm WSW 1 4 - - - - 10 - - 24.7 1007.6 1.4
21/10:30pm CALM 0 3 - - - - 10 - - 24.7 1007.5 1.4
21/10:00pm CALM 0 0 - - - - 10 - - 24.9 1007.1 1.4
21/09:30pm SW 3 5 - - - - 10 - - 25.0 1007.0 1.4
21/09:00pm SW 4 5 - - - - 10 Mostly cloudy - 25.0 1006.8 1.4
21/08:30pm WSW 4 5 - - - - 10 - - 25.1 1006.7 1.4
21/08:00pm WSW 4 5 - - - - 10 Partly cloudy - 25.1 1006.7 1.4
21/07:30pm SW 2 4 - - - - 10 - - 25.2 1006.7 1.4
21/07:00pm WSW 4 5 - - - - 10 Partly cloudy - 25.4 1006.7 1.4
21/06:39pm WSW 5 8 - - - - 10 Partly cloudy - 25.5 1006.6 1.4
21/06:30pm WSW 5 9 - - - - 10 Partly cloudy - 25.6 1006.6 1.4
21/06:00pm W 6 8 - - - - 10 Cloudy - 25.9 1005.8 1.4
21/05:51pm W 5 8 - - - - 10 Partly cloudy - 25.9 1005.6 1.4
21/05:30pm W 6 10 - - - - 10 Partly cloudy - 26.1 1005.3 1.4
21/05:00pm WSW 6 9 - - - - 10 Partly cloudy - 26.5 1005.4 1.4
21/04:30pm W 6 9 - - - - 10 Partly cloudy - 26.6 1005.1 1.4
21/04:00pm WNW 6 9 - - - - 10 Partly cloudy - 26.8 1005.1 1.4
21/03:30pm WSW 4 6 - - - - 10 Partly cloudy - 27.4 1005.4 1.4
21/03:00pm NE 4 6 - - - - 10 Cloudy Recent precip. 27.2 1005.4 1.4
21/02:30pm NNE 7 9 - - - - 10 Partly cloudy - 26.4 1005.1 1.4
21/02:19pm NE 7 10 - - - - 10 Partly cloudy - 26.3 1005.2 1.4
21/02:02pm ENE 11 28 - - - - 5 Partly cloudy - 26.3 1005.3 1.4
21/02:00pm NE 9 28 - - - - 10 Partly cloudy - 27.7 1005.4 0.8
21/01:30pm ESE 2 7 - - - - 10 Partly cloudy - 31.8 1005.8 0.2
21/01:00pm SW 3 9 - - - - 10 - - 31.6 1006.3 0.2
21/12:30pm W 4 6 - - - - 10 Partly cloudy - 30.8 1006.9 0.2
21/12:00pm WSW 5 7 - - - - 10 Cloudy - 31.0 1007.2 0.2
21/11:30am WSW 5 7 - - - - 10 Cloudy - 30.1 1007.3 0.2
21/11:00am WSW 5 9 - - - - 10 Partly cloudy - 29.9 1007.6 0.2
21/10:30am WSW 5 8 - - - - 10 Partly cloudy - 29.2 1007.8 0.2
21/10:00am SSW 7 10 - - - - 10 - - 28.6 1007.8 0.0
21/09:30am SW 7 11 - - - - 10 - - 28.2 1007.3 0.0
21/09:00am SSW 8 12 - - - - 10 - - 26.9 1007.0 47.6
21/08:30am SW 6 9 - - - - 10 - - 26.1 1006.8 47.6
21/08:00am SW 5 8 - - - - 10 - - 24.7 1006.5 47.6
21/07:30am SW 4 7 - - - - 10 - - 24.3 1006.0 47.6
21/07:00am WSW 4 6 - - - - 10 - - 23.9 1005.6 47.6
21/06:30am W 3 5 - - - - 10 - - 24.1 1005.4 47.6
21/06:00am W 3 4 - - - - 10 - - 24.1 1005.1 47.6
21/05:30am CALM 0 0 - - - - 10 - - 24.3 1005.3 47.6
21/05:00am WSW 1 4 - - - - 10 - - 24.2 1005.2 47.6
21/04:30am WSW 2 4 - - - - 10 - - 24.2 1005.1 47.6
21/04:00am WSW 3 5 - - - - 10 - - 24.2 1005.2 47.6
21/03:30am SW 3 5 - - - - 10 - - 24.2 1005.4 47.6
21/03:00am WSW 3 4 - - - - 10 Cloudy - 24.2 1005.7 47.6
21/02:30am WSW 1 3 - - - - 10 - - 24.4 1006.2 47.6
21/02:00am WSW 3 5 - - - - 10 - - 24.4 1006.5 47.6
21/01:30am WSW 4 6 - - - - 10 - - 24.4 1007.0 47.6
21/01:00am WSW 2 4 - - - - 10 - - 24.3 - 47.6
21/12:30am CALM 0 0 - - - - 10 - - 24.2 1007.6 47.6
21/12:00am S 3 4 - - - - 10 Cloudy Drizzle 24.0 1007.6 47.6
 
Date/Time
CST
Wind Sea
Height
m
Swell Vis
km
Cloud Weather Temp
°C
Press
hPa
Rain since
9am
mm
Dir  Spd
kts
Gust
kts
Height
m
Period
s
Dir
20/11:30pm S 2 5 - - - - 10 - - 24.0 1007.4 47.6
20/11:00pm SW 3 5 - - - - 10 Partly cloudy - 23.9 1007.6 47.4
20/10:48pm SW 4 6 - - - - 10 Partly cloudy - 23.9 1007.7 47.4
20/10:30pm SW 4 5 - - - - 10 Partly cloudy - 24.0 1007.8 47.4
20/10:22pm SW 4 5 - - - - 10 Partly cloudy - 24.1 1007.7 47.4
20/10:00pm W 4 7 - - - - 10 Partly cloudy - 24.0 1007.6 47.0
20/09:30pm W 4 6 - - - - 10 - - 23.8 1006.8 46.8
20/09:00pm SW 6 8 - - - - 10 Cloudy Showers 23.6 1006.5 46.2
20/08:30pm SSW 4 7 - - - - 10 - - 23.3 1006.4 45.2
20/08:00pm WSW 3 4 - - - - 10 Partly cloudy - 23.5 1006.3 44.4
20/07:30pm SW 5 6 - - - - 10 - - 23.0 1006.0 44.4
20/07:14pm SW 6 9 - - - - 10 - - 22.9 1005.3 44.4
20/07:00pm SSW 10 16 - - - - 2 Partly cloudy - 22.8 1005.7 44.2
20/06:56pm SSW 11 16 - - - - 1 Partly cloudy - 22.8 1005.9 43.8
20/06:36pm S 17 28 - - - - 0.3 Partly cloudy - 22.8 1006.4 24.4
20/06:35pm SSE 17 28 - - - - 0.3 Partly cloudy - 22.7 1006.3 22.2
20/06:30pm SE 16 23 - - - - 0.7 Partly cloudy - 23.4 1006.8 11.4
20/06:26pm SE 13 23 - - - - 4 Partly cloudy - 24.9 1006.6 2.4
20/06:24pm SE 12 23 - - - - 10 Partly cloudy - 26.1 1006.4 0.0
20/06:00pm N 13 17 - - - - 10 Cloudy - 29.3 1004.4 0.0
20/05:30pm N 14 19 - - - - 10 Partly cloudy - 29.7 1004.0 0.0
20/05:00pm N 11 15 - - - - 10 Partly cloudy - 30.0 1004.0 0.0
20/04:30pm N 13 17 - - - - 10 Partly cloudy - 30.9 1003.8 0.0
20/04:00pm NNW 12 15 - - - - 10 - - 31.1 1003.6 0.0
20/03:30pm N 13 16 - - - - 10 - - 31.0 1004.2 0.0
20/03:00pm NNW 11 15 - - - - 10 Partly cloudy - 31.5 1004.6 0.0
20/02:30pm NW 8 11 - - - - 10 Partly cloudy - 31.9 1005.0 0.0
20/02:00pm W 3 6 - - - - 10 Partly cloudy - 31.3 1005.1 0.0
20/01:30pm SSW 5 9 - - - - 10 Partly cloudy - 31.2 1005.8 0.0
20/01:00pm SSW 4 8 - - - - 10 - - 31.1 1006.2 0.0
20/12:30pm SW 4 8 - - - - 10 Partly cloudy - 29.9 1006.6 0.0
20/12:00pm WSW 5 8 - - - - 10 Mostly cloudy - 29.3 1006.9 0.0
20/11:30am SW 5 8 - - - - 10 - - 28.9 1007.0 0.0
20/11:00am SSW 4 7 - - - - 10 - - 28.4 1007.1 0.0
20/10:30am SW 5 9 - - - - 10 - - 27.9 1006.9 0.0
20/10:00am SW 5 8 - - - - 10 - - 27.3 1006.9 0.0
20/09:30am SW 5 7 - - - - 10 - - 26.9 1006.8 0.0
20/09:00am WSW 4 6 - - - - 10 - Rain 26.5 1006.9 21.0
20/08:30am SW 4 7 - - - - 10 - - 26.0 1006.6 20.8
20/08:00am WSW 4 7 - - - - 10 - - 25.6 1006.4 20.8
20/07:30am WSW 5 9 - - - - 10 - - 25.2 1005.9 20.8
20/07:00am SW 4 6 - - - - 10 - - 24.9 1005.6 20.8
20/06:30am SW 5 6 - - - - 10 - - 24.9 1005.5 20.8
20/06:00am W 3 4 - - - - 10 Cloudy - 24.8 1005.3 20.8
20/05:30am W 1 4 - - - - 10 - - 24.9 1005.0 20.8
20/05:00am W 3 4 - - - - 10 - - 24.9 1004.5 20.8
20/04:30am W 3 6 - - - - 10 - - 24.8 1004.2 20.8
20/04:00am SW 2 4 - - - - 10 - - 24.9 1003.8 20.8
20/03:30am CALM 0 0 - - - - 10 - - 25.0 1004.1 20.8
20/03:00am SW 1 3 - - - - 10 Mostly cloudy Rain 25.0 1004.4 20.8
20/02:30am SSW 2 5 - - - - 10 - - 24.8 1004.6 20.6
20/02:00am S 1 3 - - - - 10 - - 24.9 1005.2 20.6
20/01:30am S 1 4 - - - - 10 Partly cloudy - 25.1 1005.9 20.6
20/01:00am S 3 4 - - - - 10 Partly cloudy - 24.9 1006.5 20.6
20/12:30am SSE 4 5 - - - - 10 Partly cloudy - 25.0 1007.0 20.6
20/12:00am SSE 3 5 - - - - 10 Mostly cloudy Drizzle 25.2 1007.2 20.6
 
Date/Time
CST
Wind Sea
Height
m
Swell Vis
km
Cloud Weather Temp
°C
Press
hPa
Rain since
9am
mm
Dir  Spd
kts
Gust
kts
Height
m
Period
s
Dir
19/11:30pm SSW 3 5 - - - - 10 - - 25.1 1006.9 20.6
19/11:00pm SW 4 5 - - - - 10 - - 25.4 1007.2 20.6
19/10:30pm CALM 0 0 - - - - 10 Partly cloudy - 25.9 1006.4 20.6
19/10:00pm NNW 3 4 - - - - - Partly cloudy - 25.6 1006.2 20.6
19/09:30pm SSE 2 6 - - - - - - - 25.3 1006.0 20.2
19/09:00pm SE 4 6 - - - - - Cloudy Recent precip. 25.1 1005.9 19.2
19/08:30pm CALM 0 0 - - - - - Partly cloudy - 25.1 1005.9 19.0

Other formats

Comma delimited format used in spreadsheet applications
http://www.bom.gov.au/fwo/IDD60701/IDD60701.95142.axf

JavaScript Object Notation format (JSON) in row-major order
http://www.bom.gov.au/fwo/IDD60701/IDD60701.95142.json

Data quality

Most of these data are generated automatically and are frequently updated. Quality checks on data are not normally performed. It is possible for incorrect values to appear. Refer to information at About Latest Weather Observations and please check the disclaimer before using these data.